Time;durP1;ratioP1;P1;durP2;ratioP2;P2;SDS_P1;SDS_P2;PMS_P1;PMS_P2;Temp;Humidity;BMP_temperature;BMP_pressure;BME280_temperature;BME280_humidity;BME280_pressure;Samples;Min_cycle;Max_cycle;Signal;HPM_P1;HPM_P2
2023/05/15 00:02:23;;;;;;;14.85;6.05;;;11.90;78.90;;;;;;4988802;28;20050;-75
2023/05/15 00:04:50;;;;;;;11.73;6.05;;;11.80;78.90;;;;;;4989716;28;20576;-75
2023/05/15 00:07:17;;;;;;;10.65;5.95;;;11.80;79.50;;;;;;4976760;28;20515;-75
2023/05/15 00:09:44;;;;;;;10.30;6.32;;;11.80;79.30;;;;;;4969914;28;20050;-76
2023/05/15 00:12:11;;;;;;;11.93;6.40;;;11.80;79.10;;;;;;4972574;28;20068;-76
2023/05/15 00:14:38;;;;;;;14.82;6.07;;;11.80;78.80;;;;;;4964050;28;20050;-76
2023/05/15 00:17:05;;;;;;;10.18;6.20;;;11.80;79.00;;;;;;4974450;28;20054;-76
2023/05/15 00:19:32;;;;;;;11.25;6.30;;;11.80;78.90;;;;;;4986189;28;20062;-76
2023/05/15 00:21:58;;;;;;;15.35;7.00;;;11.80;79.20;;;;;;4995859;23;20367;-71
2023/05/15 00:24:25;;;;;;;10.70;6.30;;;11.80;79.20;;;;;;4998294;28;20049;-72
2023/05/15 00:26:52;;;;;;;20.00;6.65;;;11.70;79.90;;;;;;5001565;28;20052;-72
2023/05/15 00:29:19;;;;;;;8.38;6.50;;;11.60;79.70;;;;;;5000442;28;21237;-72
2023/05/15 00:31:46;;;;;;;11.48;6.38;;;11.60;81.00;;;;;;4999463;28;20084;-76
2023/05/15 00:34:12;;;;;;;11.90;6.68;;;11.60;81.30;;;;;;5002546;28;20061;-77
2023/05/15 00:36:39;;;;;;;12.15;7.07;;;11.60;81.20;;;;;;5010329;28;20050;-77
2023/05/15 00:39:06;;;;;;;14.90;6.50;;;11.50;81.20;;;;;;5021713;28;20377;-77
2023/05/15 00:41:34;;;;;;;8.75;6.53;;;11.40;81.70;;;;;;5017850;28;20368;-76
2023/05/15 00:44:01;;;;;;;14.70;7.50;;;11.30;81.40;;;;;;5016244;28;20049;-77
2023/05/15 00:46:31;;;;;;;11.13;6.32;;;11.30;82.30;;;;;;5017914;28;20057;-77
2023/05/15 00:48:59;;;;;;;14.20;7.20;;;11.20;82.40;;;;;;5020319;28;20571;-77
2023/05/15 00:51:26;;;;;;;10.80;6.97;;;11.10;83.00;;;;;;5019659;28;20555;-77
2023/05/15 00:53:53;;;;;;;11.80;8.02;;;11.10;83.00;;;;;;5019964;28;20602;-77
2023/05/15 00:56:21;;;;;;;16.10;7.00;;;11.10;82.20;;;;;;5030793;28;20052;-77
2023/05/15 00:58:52;;;;;;;10.57;6.47;;;11.10;81.80;;;;;;5024512;28;20179;-77
2023/05/15 01:01:19;;;;;;;14.55;7.05;;;11.10;82.20;;;;;;5026633;28;20056;-77
2023/05/15 01:03:46;;;;;;;12.25;7.07;;;11.10;82.70;;;;;;5026886;28;20156;-77
2023/05/15 01:06:13;;;;;;;10.40;7.22;;;11.20;82.30;;;;;;5027788;28;20042;-76
2023/05/15 01:08:45;;;;;;;11.10;7.20;;;11.10;83.20;;;;;;5029350;28;20073;-77
2023/05/15 01:11:14;;;;;;;12.90;7.15;;;11.20;81.80;;;;;;5023492;28;20049;-76
2023/05/15 01:13:41;;;;;;;14.75;7.15;;;11.20;82.40;;;;;;5019826;28;20059;-77
2023/05/15 01:16:09;;;;;;;12.00;6.65;;;11.20;82.00;;;;;;5007877;28;20053;-76
2023/05/15 01:21:35;;;;;;;13.97;6.33;;;11.20;82.50;;;;;;4984291;28;20049;-76
2023/05/15 01:24:14;;;;;;;10.60;6.75;;;11.30;82.80;;;;;;4984508;28;20065;-76
2023/05/15 01:27:20;;;;;;;12.32;7.40;;;11.30;82.30;;;;;;4993164;28;20050;-75
2023/05/15 01:30:15;;;;;;;13.95;7.40;;;11.20;82.00;;;;;;5000011;28;20056;-75
2023/05/15 01:33:05;;;;;;;12.57;6.35;;;11.20;81.80;;;;;;5016708;28;20053;-75
2023/05/15 01:35:53;;;;;;;14.38;6.82;;;11.20;82.20;;;;;;4999269;28;20279;-75
2023/05/15 01:38:32;;;;;;;11.35;7.10;;;11.20;82.30;;;;;;5003936;28;20887;-75
2023/05/15 01:41:22;;;;;;;14.75;7.13;;;11.30;83.40;;;;;;5001453;28;20142;-76
2023/05/15 01:43:55;;;;;;;12.35;6.72;;;11.30;82.30;;;;;;4993217;28;20053;-75
2023/05/15 01:46:24;;;;;;;9.15;6.65;;;11.20;83.20;;;;;;5015311;28;20057;-75
2023/05/15 01:48:52;;;;;;;11.63;6.80;;;11.20;82.60;;;;;;5016443;28;20111;-75
2023/05/15 01:51:21;;;;;;;9.32;6.70;;;11.20;83.50;;;;;;5008607;28;20176;-75
2023/05/15 01:53:49;;;;;;;15.25;6.88;;;11.20;83.20;;;;;;5017787;28;20046;-75
2023/05/15 01:56:18;;;;;;;10.38;6.80;;;11.10;83.70;;;;;;5017137;28;20776;-75
2023/05/15 01:58:47;;;;;;;10.00;6.72;;;11.20;84.00;;;;;;5012554;28;20057;-76
2023/05/15 02:01:16;;;;;;;13.70;7.25;;;11.20;83.30;;;;;;5017635;28;21297;-75
2023/05/15 02:03:45;;;;;;;18.25;8.70;;;11.20;83.90;;;;;;5031097;28;20053;-75
2023/05/15 02:06:12;;;;;;;12.23;8.15;;;11.20;83.60;;;;;;5004462;28;20041;-75
2023/05/15 02:08:41;;;;;;;13.43;8.85;;;11.20;82.80;;;;;;5003519;28;20053;-75
2023/05/15 02:11:09;;;;;;;14.57;9.40;;;11.30;81.70;;;;;;5006415;28;20084;-76
2023/05/15 02:13:37;;;;;;;13.98;7.80;;;11.30;81.90;;;;;;5006359;28;20646;-75
2023/05/15 02:16:04;;;;;;;11.15;8.45;;;11.40;81.80;;;;;;5006311;28;20116;-75
2023/05/15 02:18:31;;;;;;;11.35;7.85;;;11.40;81.30;;;;;;5002648;28;20060;-76
2023/05/15 02:20:59;;;;;;;15.38;9.05;;;11.50;82.10;;;;;;5002655;28;20707;-75
2023/05/15 02:23:26;;;;;;;15.35;8.30;;;11.50;81.70;;;;;;5006604;28;20061;-76
2023/05/15 02:26:15;;;;;;;15.45;8.35;;;11.50;82.00;;;;;;5002067;28;20048;-75
2023/05/15 02:28:49;;;;;;;12.38;8.20;;;11.50;81.50;;;;;;5001962;28;20048;-75
2023/05/15 02:31:39;;;;;;;13.88;8.60;;;11.50;82.00;;;;;;5001185;28;20774;-76
2023/05/15 02:34:31;;;;;;;19.20;8.73;;;11.50;81.60;;;;;;4999003;28;21108;-76
2023/05/15 02:37:00;;;;;;;13.57;8.70;;;11.50;82.00;;;;;;5019255;28;20053;-75
2023/05/15 02:39:28;;;;;;;14.65;8.60;;;11.50;81.90;;;;;;5019410;28;20065;-75
2023/05/15 02:41:56;;;;;;;12.93;8.45;;;11.50;82.20;;;;;;5012601;28;20050;-76
2023/05/15 02:44:24;;;;;;;17.05;8.82;;;11.50;82.80;;;;;;5019105;28;20045;-75
2023/05/15 02:46:53;;;;;;;19.15;9.20;;;11.50;83.90;;;;;;5013090;28;20475;-75
2023/05/15 02:49:20;;;;;;;19.45;8.93;;;11.50;83.20;;;;;;5022725;28;20057;-75
2023/05/15 02:51:47;;;;;;;18.60;9.43;;;11.50;84.30;;;;;;5021527;28;20049;-75
2023/05/15 02:54:14;;;;;;;14.52;9.13;;;11.50;82.70;;;;;;5022427;28;20042;-76
2023/05/15 02:56:41;;;;;;;12.63;9.02;;;11.60;83.40;;;;;;5021703;28;20046;-75
2023/05/15 02:59:08;;;;;;;16.55;9.25;;;11.60;83.50;;;;;;5018859;28;20077;-75
2023/05/15 03:01:35;;;;;;;16.38;8.80;;;11.60;83.10;;;;;;5020416;28;20107;-75
2023/05/15 03:04:02;;;;;;;14.63;9.10;;;11.60;82.80;;;;;;5017557;28;20161;-75
2023/05/15 03:06:30;;;;;;;15.30;9.63;;;11.60;83.50;;;;;;5018817;28;20046;-75
2023/05/15 03:08:57;;;;;;;12.63;8.88;;;11.60;83.80;;;;;;5022704;28;20042;-75
2023/05/15 03:11:24;;;;;;;13.80;8.85;;;11.60;83.10;;;;;;5023084;28;20048;-75
2023/05/15 03:13:50;;;;;;;16.10;8.85;;;11.50;83.10;;;;;;5021938;28;20072;-75
2023/05/15 03:16:17;;;;;;;15.93;9.50;;;11.60;83.40;;;;;;5018084;28;20165;-75
2023/05/15 03:18:45;;;;;;;17.15;9.10;;;11.50;84.80;;;;;;5020421;28;20226;-75
2023/05/15 03:21:12;;;;;;;17.88;8.98;;;11.50;83.90;;;;;;5017181;28;20053;-75
2023/05/15 03:23:39;;;;;;;21.95;9.70;;;11.50;84.70;;;;;;5020800;28;20053;-75
2023/05/15 03:26:06;;;;;;;14.20;9.18;;;11.50;85.00;;;;;;5020609;28;20097;-75
2023/05/15 03:28:33;;;;;;;16.17;9.13;;;11.50;85.40;;;;;;5011692;28;20537;-75
2023/05/15 03:30:59;;;;;;;23.23;9.60;;;11.40;85.70;;;;;;5022549;28;20449;-75
2023/05/15 03:33:26;;;;;;;15.60;10.05;;;11.40;84.90;;;;;;5019394;28;20049;-75
2023/05/15 03:35:53;;;;;;;15.50;9.93;;;11.40;85.20;;;;;;5020503;28;20053;-75
2023/05/15 03:38:20;;;;;;;17.20;8.95;;;11.30;85.10;;;;;;5017664;28;20057;-75
2023/05/15 03:40:46;;;;;;;16.05;9.95;;;11.30;85.40;;;;;;5017863;28;20041;-75
2023/05/15 03:43:16;;;;;;;17.70;9.27;;;11.20;86.30;;;;;;5021634;28;20045;-75
2023/05/15 03:45:43;;;;;;;22.35;11.20;;;11.20;86.10;;;;;;5005966;28;20442;-75
2023/05/15 03:48:10;;;;;;;22.88;10.02;;;11.20;86.30;;;;;;5008332;28;20045;-75
2023/05/15 03:50:38;;;;;;;18.30;9.38;;;11.20;86.80;;;;;;5007528;28;20046;-75
2023/05/15 03:53:05;;;;;;;28.20;10.52;;;11.10;86.10;;;;;;5006242;28;20060;-75
2023/05/15 03:55:32;;;;;;;27.35;11.07;;;11.10;86.50;;;;;;5008855;28;20057;-75
2023/05/15 03:57:58;;;;;;;18.52;9.60;;;11.20;86.60;;;;;;5008366;28;21630;-76
2023/05/15 04:00:25;;;;;;;20.13;9.68;;;11.10;86.90;;;;;;5008232;28;20643;-75
2023/05/15 04:02:52;;;;;;;17.17;10.52;;;11.10;86.50;;;;;;5009269;28;20049;-75
2023/05/15 04:05:20;;;;;;;19.10;9.90;;;11.10;87.10;;;;;;5008116;28;20049;-75
2023/05/15 04:07:47;;;;;;;17.48;9.77;;;11.00;86.60;;;;;;5005139;28;21349;-75
2023/05/15 04:10:14;;;;;;;16.77;9.75;;;11.00;87.20;;;;;;5006773;28;20906;-75
2023/05/15 04:12:41;;;;;;;14.25;9.52;;;11.00;87.60;;;;;;5023624;28;20081;-76
2023/05/15 04:15:17;;;;;;;18.08;10.05;;;11.00;87.80;;;;;;5014912;28;21331;-75
2023/05/15 04:17:45;;;;;;;24.75;10.85;;;10.90;87.50;;;;;;5019645;28;20130;-75
2023/05/15 04:20:14;;;;;;;17.67;10.23;;;10.90;87.90;;;;;;5022217;28;20049;-75
2023/05/15 04:22:42;;;;;;;20.10;9.82;;;10.80;87.80;;;;;;5020580;28;20045;-75
2023/05/15 04:25:10;;;;;;;20.13;11.50;;;10.80;87.80;;;;;;5019875;28;20052;-79
2023/05/15 04:27:38;;;;;;;15.90;10.65;;;10.80;88.70;;;;;;5039702;28;20055;-78
2023/05/15 04:30:06;;;;;;;33.97;11.90;;;10.80;88.90;;;;;;5027085;28;20050;-78
2023/05/15 04:32:33;;;;;;;16.63;10.85;;;10.80;88.60;;;;;;5022172;28;20054;-78
2023/05/15 04:35:04;;;;;;;22.70;10.48;;;10.80;87.90;;;;;;5027275;28;20129;-79
2023/05/15 04:37:31;;;;;;;23.55;11.57;;;10.80;88.30;;;;;;5022496;28;20140;-76
2023/05/15 04:39:58;;;;;;;19.25;10.38;;;10.70;88.00;;;;;;5020596;28;20049;-77
2023/05/15 04:42:25;;;;;;;16.48;10.73;;;10.70;88.60;;;;;;5020595;28;20871;-78
2023/05/15 04:44:52;;;;;;;22.27;10.98;;;10.70;88.50;;;;;;5023451;28;20530;-79
2023/05/15 04:47:19;;;;;;;27.83;11.80;;;10.70;88.80;;;;;;5024912;28;20049;-79
2023/05/15 04:49:49;;;;;;;20.08;11.27;;;10.80;90.60;;;;;;5028554;28;20137;-78
2023/05/15 04:52:16;;;;;;;22.52;12.50;;;10.80;90.80;;;;;;5024262;28;20038;-78
2023/05/15 04:54:43;;;;;;;24.63;12.85;;;10.80;90.80;;;;;;5020612;28;20045;-78
2023/05/15 04:57:10;;;;;;;25.83;12.90;;;10.90;91.40;;;;;;5023029;28;20053;-80
2023/05/15 04:59:37;;;;;;;22.48;13.52;;;11.00;91.00;;;;;;5018915;28;20054;-77
2023/05/15 05:02:03;;;;;;;24.83;12.75;;;11.10;90.90;;;;;;5017081;28;20049;-79
2023/05/15 05:04:30;;;;;;;28.27;12.55;;;11.10;91.80;;;;;;5017423;28;20774;-78
2023/05/15 05:06:57;;;;;;;34.25;17.70;;;11.20;89.30;;;;;;5021488;28;20116;-77
2023/05/15 05:09:24;;;;;;;20.33;12.73;;;11.40;90.00;;;;;;5020202;28;20787;-78
2023/05/15 05:11:51;;;;;;;32.40;13.80;;;11.50;89.40;;;;;;5023465;28;20095;-79
2023/05/15 05:14:18;;;;;;;29.63;13.90;;;11.60;89.90;;;;;;5019036;28;20041;-81
2023/05/15 05:16:45;;;;;;;19.13;12.90;;;11.80;88.20;;;;;;5020371;28;20060;-79
2023/05/15 05:19:12;;;;;;;18.42;12.15;;;12.00;88.30;;;;;;5016256;28;20056;-77
2023/05/15 05:21:39;;;;;;;27.45;12.50;;;12.10;88.60;;;;;;5023920;28;20068;-79
2023/05/15 05:24:05;;;;;;;18.15;12.40;;;12.20;88.10;;;;;;5021639;28;20049;-80
2023/05/15 05:26:32;;;;;;;33.65;12.60;;;12.20;87.30;;;;;;5018385;28;20238;-83
2023/05/15 05:28:59;;;;;;;22.85;11.52;;;12.30;87.70;;;;;;5018907;28;20049;-79
2023/05/15 05:31:27;;;;;;;21.50;12.25;;;12.30;86.80;;;;;;5017820;28;20164;-78
2023/05/15 05:33:56;;;;;;;21.05;12.15;;;12.30;86.90;;;;;;5020976;28;20115;-80
2023/05/15 05:36:22;;;;;;;18.13;11.77;;;12.30;87.30;;;;;;5023199;28;20041;-80
2023/05/15 05:38:49;;;;;;;35.25;12.57;;;12.40;86.50;;;;;;5022446;28;20060;-78
2023/05/15 05:41:16;;;;;;;25.80;12.00;;;12.50;86.10;;;;;;5017492;28;20057;-77
2023/05/15 05:43:43;;;;;;;22.58;12.60;;;12.50;85.10;;;;;;5018992;28;20049;-75
2023/05/15 05:46:10;;;;;;;20.70;11.98;;;12.60;85.80;;;;;;5013043;28;20273;-76
2023/05/15 05:48:37;;;;;;;27.27;12.68;;;12.70;85.90;;;;;;4999852;28;20052;-76
2023/05/15 05:51:03;;;;;;;30.92;13.07;;;12.80;86.20;;;;;;5008935;28;20230;-76
2023/05/15 05:53:30;;;;;;;32.08;13.35;;;12.90;85.40;;;;;;5010537;28;20060;-77
2023/05/15 05:55:57;;;;;;;37.35;12.82;;;13.00;86.60;;;;;;5010741;28;20066;-76
2023/05/15 05:58:24;;;;;;;24.73;12.55;;;13.10;84.50;;;;;;5012488;28;20050;-77
2023/05/15 06:00:53;;;;;;;26.30;12.73;;;13.20;85.20;;;;;;5007894;28;20103;-77
2023/05/15 06:03:20;;;;;;;25.90;12.73;;;13.40;85.60;;;;;;5011985;28;20144;-76
2023/05/15 06:05:47;;;;;;;25.60;12.48;;;13.70;85.80;;;;;;5009680;28;20406;-76
2023/05/15 06:08:14;;;;;;;15.30;11.18;;;14.00;83.60;;;;;;5011828;28;20537;-76
2023/05/15 06:10:41;;;;;;;25.73;11.77;;;14.30;84.10;;;;;;5009942;28;20080;-76
2023/05/15 06:13:09;;;;;;;20.05;12.02;;;14.50;82.70;;;;;;5012344;28;20049;-76
2023/05/15 06:15:36;;;;;;;19.65;11.70;;;14.90;82.20;;;;;;5009058;28;20065;-76
2023/05/15 06:18:03;;;;;;;28.13;12.10;;;15.20;80.10;;;;;;5001547;28;20123;-76
2023/05/15 06:20:30;;;;;;;22.08;10.32;;;15.50;77.90;;;;;;4994101;28;20058;-76
2023/05/15 06:22:59;;;;;;;18.60;9.88;;;15.70;76.40;;;;;;4995401;28;20064;-76
2023/05/15 06:25:26;;;;;;;23.48;10.05;;;16.00;75.70;;;;;;4993989;28;21265;-76
2023/05/15 06:27:52;;;;;;;27.15;9.63;;;16.10;75.50;;;;;;4994426;28;20493;-76
2023/05/15 06:30:19;;;;;;;17.08;9.65;;;16.50;73.70;;;;;;4995857;28;20046;-76
2023/05/15 06:32:46;;;;;;;12.32;9.13;;;16.40;70.80;;;;;;4997599;28;20054;-76
2023/05/15 06:35:13;;;;;;;15.52;8.88;;;16.10;71.40;;;;;;4996715;28;20431;-77
2023/05/15 06:37:39;;;;;;;19.73;9.60;;;15.90;72.50;;;;;;4996472;28;20045;-76
2023/05/15 06:40:07;;;;;;;22.40;9.52;;;15.80;75.20;;;;;;4993043;28;20119;-77
2023/05/15 06:42:34;;;;;;;26.30;9.45;;;16.00;74.60;;;;;;5014174;28;20045;-77
2023/05/15 06:45:01;;;;;;;13.93;9.02;;;16.50;73.20;;;;;;4996224;28;20054;-77
2023/05/15 06:47:27;;;;;;;17.65;9.85;;;16.80;71.60;;;;;;5002817;28;20053;-76
2023/05/15 06:49:54;;;;;;;18.70;9.60;;;16.70;72.60;;;;;;5008605;28;20046;-76
2023/05/15 06:52:21;;;;;;;16.60;9.57;;;16.80;72.40;;;;;;5001426;28;20065;-77
2023/05/15 06:54:48;;;;;;;24.33;11.23;;;17.30;71.20;;;;;;5005436;28;20467;-77
2023/05/15 06:57:15;;;;;;;17.80;9.68;;;17.70;68.70;;;;;;5009679;28;20057;-77
2023/05/15 06:59:42;;;;;;;12.90;9.13;;;17.70;71.90;;;;;;5010259;28;20624;-76
2023/05/15 07:02:08;;;;;;;20.05;9.75;;;18.20;67.90;;;;;;5009615;28;20057;-77
2023/05/15 07:04:35;;;;;;;25.65;9.68;;;18.60;67.80;;;;;;5011758;28;20087;-77
2023/05/15 07:07:02;;;;;;;20.08;9.10;;;18.70;67.30;;;;;;5010236;28;20219;-76
2023/05/15 07:09:29;;;;;;;16.83;9.25;;;18.80;66.40;;;;;;5007406;28;20050;-76
2023/05/15 07:11:56;;;;;;;11.25;8.63;;;19.20;64.80;;;;;;5012162;28;20059;-76
2023/05/15 07:14:23;;;;;;;20.25;9.93;;;19.40;64.90;;;;;;5008474;28;20410;-76
2023/05/15 07:16:50;;;;;;;21.80;10.50;;;19.60;62.80;;;;;;5011547;28;20054;-78
2023/05/15 07:19:19;;;;;;;17.23;10.20;;;19.80;64.10;;;;;;5011515;28;20107;-76
2023/05/15 07:21:46;;;;;;;10.98;9.20;;;19.80;64.10;;;;;;5006263;28;20374;-77
2023/05/15 07:24:13;;;;;;;14.30;9.15;;;20.00;64.70;;;;;;5004886;28;20057;-77
2023/05/15 07:26:40;;;;;;;14.43;8.77;;;20.20;62.50;;;;;;5003248;28;20076;-78
2023/05/15 07:29:24;;;;;;;18.83;9.50;;;20.20;64.30;;;;;;5004719;28;20830;-77
2023/05/15 07:31:50;;;;;;;11.32;8.75;;;20.30;63.70;;;;;;5006475;28;20984;-77
2023/05/15 07:34:18;;;;;;;17.38;8.85;;;20.70;62.90;;;;;;5008422;28;20438;-77
2023/05/15 07:36:44;;;;;;;15.63;8.57;;;21.20;59.80;;;;;;5007204;28;20061;-77
2023/05/15 07:39:12;;;;;;;21.25;9.00;;;20.80;60.70;;;;;;5006845;28;20081;-77
2023/05/15 07:41:39;;;;;;;14.65;8.38;;;20.80;63.00;;;;;;5004067;28;20166;-77
2023/05/15 07:44:05;;;;;;;13.85;8.45;;;21.30;60.00;;;;;;5008403;28;20054;-77
2023/05/15 07:46:33;;;;;;;17.83;7.93;;;20.90;61.50;;;;;;5008006;28;20282;-77
2023/05/15 07:49:00;;;;;;;15.95;9.15;;;21.30;60.50;;;;;;5025021;28;20056;-77
2023/05/15 07:51:26;;;;;;;12.40;8.07;;;21.50;58.80;;;;;;5010359;28;20042;-77
2023/05/15 07:53:53;;;;;;;23.75;8.15;;;21.70;59.10;;;;;;5013359;28;20069;-77
2023/05/15 07:56:20;;;;;;;23.73;8.95;;;20.70;57.90;;;;;;5013219;28;20061;-77
2023/05/15 07:58:47;;;;;;;12.73;7.20;;;20.50;59.90;;;;;;5015537;28;20058;-77
2023/05/15 08:01:14;;;;;;;14.43;7.50;;;20.10;62.40;;;;;;5013678;28;20123;-77
2023/05/15 08:03:41;;;;;;;15.93;8.68;;;20.30;64.00;;;;;;5012993;28;20061;-77
2023/05/15 08:06:08;;;;;;;58.97;9.57;;;20.50;62.10;;;;;;5012443;28;20065;-77
2023/05/15 08:08:35;;;;;;;14.48;7.00;;;20.80;60.80;;;;;;5003904;28;20076;-77
2023/05/15 08:11:02;;;;;;;15.07;7.20;;;21.00;62.00;;;;;;5011497;28;20046;-77
2023/05/15 08:13:29;;;;;;;14.07;7.63;;;21.20;61.50;;;;;;5014314;28;20052;-77
2023/05/15 08:15:56;;;;;;;14.43;7.53;;;22.00;59.70;;;;;;5014015;28;20402;-77
2023/05/15 08:18:23;;;;;;;9.57;6.65;;;22.40;56.70;;;;;;5015698;28;20080;-77
2023/05/15 08:20:51;;;;;;;12.70;6.63;;;22.50;56.00;;;;;;5014250;28;20142;-77
2023/05/15 08:23:18;;;;;;;13.52;6.60;;;22.70;54.10;;;;;;5015991;28;20042;-77
2023/05/15 08:25:45;;;;;;;14.90;6.70;;;22.20;54.50;;;;;;5014527;28;20399;-77
2023/05/15 08:28:11;;;;;;;21.00;10.23;;;21.80;57.60;;;;;;5010985;28;20056;-77
2023/05/15 08:30:38;;;;;;;12.85;6.28;;;21.90;59.30;;;;;;5009060;28;20091;-77
2023/05/15 08:33:05;;;;;;;11.85;6.10;;;21.90;57.20;;;;;;5010063;28;20046;-77
2023/05/15 08:35:32;;;;;;;15.77;6.72;;;22.30;57.40;;;;;;5015065;28;20144;-77
2023/05/15 08:37:59;;;;;;;14.93;6.93;;;22.50;58.40;;;;;;5002063;28;20184;-77
2023/05/15 08:40:27;;;;;;;17.75;6.50;;;22.50;55.50;;;;;;5000232;28;20049;-77
2023/05/15 08:43:02;;;;;;;12.95;6.20;;;23.00;55.60;;;;;;4998364;28;20076;-77
2023/05/15 08:45:30;;;;;;;7.50;5.90;;;23.20;55.60;;;;;;4998960;28;20770;-77
2023/05/15 08:47:59;;;;;;;13.63;5.85;;;23.50;53.90;;;;;;5000726;28;20375;-77
2023/05/15 08:50:27;;;;;;;18.92;7.47;;;24.50;51.00;;;;;;5001561;28;20057;-77
2023/05/15 08:52:57;;;;;;;16.73;6.30;;;24.50;52.40;;;;;;5000569;28;20071;-77
2023/05/15 08:55:24;;;;;;;18.20;6.18;;;24.40;52.10;;;;;;5001236;28;20049;-78
2023/05/15 08:57:53;;;;;;;23.58;6.95;;;25.00;50.20;;;;;;4999759;28;20111;-77
2023/05/15 09:00:21;;;;;;;14.48;5.85;;;25.20;50.90;;;;;;5001824;28;20061;-77
2023/05/15 09:02:48;;;;;;;15.95;6.47;;;25.90;50.80;;;;;;5000400;28;20455;-77
2023/05/15 09:05:15;;;;;;;15.02;5.70;;;25.60;50.20;;;;;;5000805;28;20061;-77
2023/05/15 09:07:43;;;;;;;8.38;5.85;;;25.60;51.80;;;;;;5011077;28;20049;-77
2023/05/15 09:10:12;;;;;;;10.30;5.35;;;26.80;48.70;;;;;;5016318;28;20062;-77
2023/05/15 09:12:46;;;;;;;9.63;6.03;;;27.40;48.10;;;;;;5015350;28;20046;-77
2023/05/15 09:15:21;;;;;;;14.90;5.95;;;26.40;46.90;;;;;;5015021;28;20049;-77
2023/05/15 09:17:49;;;;;;;19.38;6.50;;;26.60;47.50;;;;;;5016202;28;20199;-78
2023/05/15 09:20:32;;;;;;;12.05;5.38;;;26.70;48.10;;;;;;5015140;28;20133;-77
2023/05/15 09:23:01;;;;;;;13.00;6.10;;;27.20;45.80;;;;;;5013588;28;20053;-78
2023/05/15 09:25:39;;;;;;;15.90;6.43;;;27.60;46.10;;;;;;5016621;28;20053;-77
2023/05/15 09:28:09;;;;;;;12.05;5.80;;;27.00;48.50;;;;;;5016533;28;20049;-77
2023/05/15 09:30:37;;;;;;;6.40;5.10;;;27.60;47.00;;;;;;5014005;28;20159;-77
2023/05/15 09:33:04;;;;;;;13.38;5.28;;;28.20;45.80;;;;;;5014628;28;20127;-77
2023/05/15 09:35:39;;;;;;;14.52;5.35;;;28.40;45.40;;;;;;5015135;28;20512;-77
2023/05/15 09:38:11;;;;;;;15.27;5.22;;;28.70;43.30;;;;;;5016807;28;20632;-78
2023/05/15 09:40:39;;;;;;;10.68;4.47;;;28.00;44.20;;;;;;5017770;28;20050;-77
2023/05/15 09:43:10;;;;;;;16.25;5.80;;;28.20;44.50;;;;;;5016628;28;20050;-77
2023/05/15 09:45:37;;;;;;;9.40;5.25;;;27.80;44.70;;;;;;5014413;28;20065;-77
2023/05/15 09:48:05;;;;;;;10.88;4.70;;;28.20;44.70;;;;;;5017135;28;20048;-77
2023/05/15 09:50:37;;;;;;;10.13;4.78;;;27.80;42.80;;;;;;5026816;28;20084;-77
2023/05/15 09:53:04;;;;;;;10.18;5.10;;;29.10;44.30;;;;;;5020676;28;20379;-78
2023/05/15 09:55:33;;;;;;;8.55;5.13;;;29.00;42.60;;;;;;5010276;28;20157;-78
2023/05/15 09:58:08;;;;;;;14.05;5.38;;;28.20;42.90;;;;;;5023533;28;20068;-78
2023/05/15 10:00:36;;;;;;;7.03;4.63;;;28.50;44.40;;;;;;5014682;28;20053;-78
2023/05/15 10:03:17;;;;;;;8.95;5.07;;;28.90;44.60;;;;;;5011078;28;20127;-77
2023/05/15 10:05:44;;;;;;;13.27;4.60;;;28.80;42.80;;;;;;5022854;28;20062;-77
2023/05/15 10:08:11;;;;;;;7.75;4.75;;;29.00;44.30;;;;;;5024181;28;20055;-77
2023/05/15 10:10:38;;;;;;;9.40;4.97;;;28.70;44.10;;;;;;5018620;28;20046;-77
2023/05/15 10:13:06;;;;;;;8.55;4.47;;;29.00;41.90;;;;;;5021356;28;20045;-77
2023/05/15 10:15:34;;;;;;;10.13;4.68;;;29.20;41.60;;;;;;5022934;28;20060;-77
2023/05/15 10:18:03;;;;;;;9.02;4.38;;;29.80;42.00;;;;;;5013273;28;20055;-77
2023/05/15 10:20:34;;;;;;;6.50;4.15;;;29.40;43.10;;;;;;5026004;28;20056;-77
2023/05/15 10:23:05;;;;;;;13.70;4.05;;;30.10;41.20;;;;;;5030511;28;20080;-78
2023/05/15 10:25:40;;;;;;;8.40;4.35;;;30.40;38.70;;;;;;5015972;28;20415;-78
2023/05/15 10:28:07;;;;;;;;;;;30.60;40.10;;;;;;5023110;28;20390;-77
2023/05/15 10:30:35;;;;;;;7.63;3.95;;;30.70;38.00;;;;;;5021778;28;20400;-77
2023/05/15 10:33:04;;;;;;;12.68;4.50;;;29.50;39.10;;;;;;5014879;28;20046;-77
2023/05/15 10:35:31;;;;;;;6.88;4.10;;;28.90;40.50;;;;;;5020681;28;20513;-77
2023/05/15 10:37:59;;;;;;;10.73;4.78;;;28.70;41.10;;;;;;5021080;28;20138;-77
2023/05/15 10:40:28;;;;;;;7.75;3.95;;;28.30;42.40;;;;;;5011104;28;20512;-78
2023/05/15 10:42:58;;;;;;;8.98;4.10;;;28.10;42.10;;;;;;5022345;28;20147;-77
2023/05/15 10:45:25;;;;;;;7.75;4.35;;;27.80;42.40;;;;;;5018031;28;20049;-78
2023/05/15 10:47:53;;;;;;;22.42;4.72;;;27.40;42.80;;;;;;5015059;28;20050;-77
2023/05/15 10:50:20;;;;;;;11.98;4.63;;;27.30;41.50;;;;;;5029302;28;20056;-78
2023/05/15 10:52:51;;;;;;;11.38;4.22;;;27.50;42.50;;;;;;5019167;28;20045;-78
2023/05/15 10:55:18;;;;;;;14.38;4.05;;;27.30;42.70;;;;;;5005146;28;20505;-77
2023/05/15 10:57:46;;;;;;;8.88;3.75;;;27.30;43.50;;;;;;5011838;28;20057;-77
2023/05/15 11:00:22;;;;;;;6.90;3.63;;;27.60;40.40;;;;;;5032361;28;20483;-77
2023/05/15 11:02:55;;;;;;;11.35;4.05;;;27.40;40.80;;;;;;5012772;28;20057;-78
2023/05/15 11:05:23;;;;;;;15.02;4.72;;;26.60;41.20;;;;;;5018577;28;20056;-78
2023/05/15 11:08:17;;;;;;;8.35;4.65;;;25.60;43.10;;;;;;5016960;28;20049;-77
2023/05/15 11:10:44;;;;;;;11.35;4.38;;;25.00;44.20;;;;;;5029498;28;20057;-77
2023/05/15 11:13:10;;;;;;;10.65;3.83;;;24.70;46.50;;;;;;5023580;28;20056;-77
2023/05/15 11:15:45;;;;;;;12.73;4.18;;;25.50;43.90;;;;;;5015329;28;20060;-78
2023/05/15 11:18:13;;;;;;;6.82;3.42;;;25.80;42.80;;;;;;5017868;28;20510;-77
2023/05/15 11:21:01;;;;;;;9.98;3.92;;;25.60;46.00;;;;;;5015082;28;20146;-77
2023/05/15 11:23:36;;;;;;;5.88;3.10;;;25.90;43.70;;;;;;5025966;28;20072;-77
2023/05/15 11:26:04;;;;;;;5.63;3.78;;;27.20;43.90;;;;;;5017351;28;20112;-78
2023/05/15 11:28:41;;;;;;;5.93;3.50;;;26.50;44.20;;;;;;5016380;28;20728;-77
2023/05/15 11:31:08;;;;;;;10.68;3.58;;;26.70;43.50;;;;;;5018614;28;20050;-78
2023/05/15 11:33:37;;;;;;;6.72;3.83;;;27.50;42.60;;;;;;5010442;28;20046;-77
2023/05/15 11:36:05;;;;;;;4.15;3.47;;;28.00;42.20;;;;;;5022717;28;20239;-78
2023/05/15 11:38:38;;;;;;;6.55;3.50;;;28.80;41.00;;;;;;5015719;28;20383;-78
2023/05/15 11:41:17;;;;;;;5.07;3.75;;;28.90;39.60;;;;;;5010699;28;20411;-78
2023/05/15 11:43:45;;;;;;;29.90;6.00;;;28.20;42.00;;;;;;5014612;28;20049;-77
2023/05/15 11:46:12;;;;;;;7.03;3.70;;;28.00;41.60;;;;;;5010791;28;20046;-78
2023/05/15 11:48:46;;;;;;;7.22;3.50;;;29.70;39.40;;;;;;5029498;28;20052;-78
2023/05/15 11:51:20;;;;;;;7.70;3.40;;;30.10;38.10;;;;;;5029150;28;20053;-78
2023/05/15 11:53:53;;;;;;;3.13;2.83;;;30.40;37.50;;;;;;5012814;28;20574;-78
2023/05/15 11:56:21;;;;;;;3.28;2.55;;;30.80;37.20;;;;;;5017789;28;20295;-78
2023/05/15 11:58:57;;;;;;;7.65;3.40;;;30.50;37.00;;;;;;5016688;28;20351;-78
2023/05/15 12:01:24;;;;;;;7.53;3.22;;;30.00;38.80;;;;;;5028006;28;20053;-78
2023/05/15 12:03:53;;;;;;;10.15;3.05;;;30.50;38.70;;;;;;5026560;28;20057;-78
2023/05/15 12:06:20;;;;;;;5.63;3.00;;;30.30;35.20;;;;;;5031752;28;20135;-78
2023/05/15 12:08:52;;;;;;;22.35;3.85;;;29.70;35.40;;;;;;5029040;28;20155;-78
2023/05/15 12:11:23;;;;;;;10.40;3.35;;;28.90;36.10;;;;;;5016705;28;20069;-78
2023/05/15 12:13:54;;;;;;;8.00;3.22;;;27.20;38.60;;;;;;5016202;28;20430;-78
2023/05/15 12:16:25;;;;;;;14.45;3.95;;;26.70;38.10;;;;;;5021720;28;20053;-77
2023/05/15 12:18:52;;;;;;;9.95;4.60;;;26.30;40.80;;;;;;5021549;28;20049;-77
2023/05/15 12:21:19;;;;;;;10.23;4.95;;;26.10;42.50;;;;;;5019590;28;20549;-77
2023/05/15 12:23:54;;;;;;;13.88;5.68;;;25.50;44.50;;;;;;5025319;28;20103;-78
2023/05/15 12:26:33;;;;;;;8.35;5.43;;;24.80;46.30;;;;;;5023616;28;20460;-78
2023/05/15 12:29:00;;;;;;;16.02;5.55;;;24.30;47.70;;;;;;5011765;28;20049;-78
2023/05/15 12:31:28;;;;;;;29.27;6.53;;;23.60;49.20;;;;;;5015072;28;20054;-78
2023/05/15 12:33:55;;;;;;;17.92;5.85;;;23.00;55.70;;;;;;5008310;28;20054;-77
2023/05/15 12:36:22;;;;;;;12.10;5.70;;;22.30;64.20;;;;;;5020882;28;20057;-77
2023/05/15 12:38:49;;;;;;;19.70;6.85;;;21.30;68.50;;;;;;5023761;28;20052;-76
2023/05/15 12:41:18;;;;;;;19.15;6.20;;;20.10;71.10;;;;;;5018069;28;20069;-77
2023/05/15 12:43:45;;;;;;;14.52;5.65;;;19.20;70.70;;;;;;5031814;28;20080;-77
2023/05/15 12:46:14;;;;;;;12.50;5.03;;;18.40;68.10;;;;;;5014284;28;20238;-76
2023/05/15 12:48:41;;;;;;;10.50;4.93;;;17.80;68.50;;;;;;5024499;28;20123;-77